チェンナイ の空港の天気 - METARとTAF

チェンナイ国際空港 ( VOMM / MAA ) - インド チェンナイ
飛行場実況気象(Metar)
観測時間04/30 20:00 IST (04/30 14:30 UTC)
風向・風速南南東 5m/s
視程6000m
天気現象
少しの雲 雲底高度 610m
少しの雲 雲底高度 760m
全天の4割程度の雲 雲底高度 3050m
気温31℃
湿度75%
気圧1008hPa
METARVOMM 301430Z 15010KT 6000 FEW020 FEW025TCU SCT100 31/26 Q1008 NOSIG
過去の天気等 Google飛行場航空写真 Wunderground天気予報

過去48時間のMETAR

飛行場予報(TAF)
発表時間: 4/30 16:30 IST (4/30 11:00 UTC)
予報対象時間: 30日17時 IST ~ 1日23時 IST
風向・風速南南東 5m/s
視程6,000m
少しの雲 雲底高度 610m
1日5時 IST ~ 1日6時 IST に徐々に
視程5,000m
天気現象煙霧
1日9時 IST ~ 1日10時 IST に徐々に
視程6,000m
TAF VOMM 301100Z 3012/0118 16010KT 6000 FEW020
BECMG 0100/0101 5000 HZ
BECMG 0104/0105 6000